Time;durP1;ratioP1;P1;durP2;ratioP2;P2;SDS_P1;SDS_P2;PMS_P1;PMS_P2;Temp;Humidity;BMP_temperature;BMP_pressure;BME280_temperature;BME280_humidity;BME280_pressure;Samples;Min_cycle;Max_cycle;Signal;HPM_P1;HPM_P2
2021/10/24 00:02:09;;;;;;;3.05;2.55;;;;;;;24.56;25.99;95432.38;4952811;29;20062;-49
2021/10/24 00:04:36;;;;;;;3.53;3.22;;;;;;;25.49;24.96;95428.84;4937434;29;20052;-43
2021/10/24 00:07:03;;;;;;;3.25;2.78;;;;;;;25.67;24.84;95429.97;4948478;29;20051;-42
2021/10/24 00:09:30;;;;;;;3.08;2.70;;;;;;;26.25;23.78;95427.06;4956469;29;20055;-44
2021/10/24 00:11:58;;;;;;;3.58;3.22;;;;;;;26.65;23.56;95425.75;4948853;29;20047;-48
2021/10/24 00:14:25;;;;;;;3.58;2.92;;;;;;;26.77;22.98;95425.50;4950138;28;20047;-47
2021/10/24 00:16:52;;;;;;;3.17;2.83;;;;;;;27.02;23.07;95425.84;4945695;29;20050;-46
2021/10/24 00:19:19;;;;;;;3.05;2.70;;;;;;;26.77;23.21;95430.09;4956117;29;20066;-42
2021/10/24 00:21:46;;;;;;;4.85;2.97;;;;;;;27.08;23.05;95426.31;4955772;29;20058;-48
2021/10/24 00:24:13;;;;;;;3.45;2.83;;;;;;;26.83;23.17;95428.66;4955649;29;20070;-52
2021/10/24 00:26:41;;;;;;;3.30;3.00;;;;;;;26.83;23.27;95439.38;4955223;29;20054;-44
2021/10/24 00:29:08;;;;;;;3.67;3.05;;;;;;;26.94;22.92;95446.41;4953371;29;20050;-47
2021/10/24 00:31:35;;;;;;;3.92;3.25;;;;;;;26.52;23.95;95440.47;4935784;29;20051;-47
2021/10/24 00:34:03;;;;;;;3.83;3.42;;;;;;;26.68;23.34;95438.41;4936663;29;20067;-46
2021/10/24 00:36:30;;;;;;;3.55;3.25;;;;;;;26.85;23.51;95440.56;4944211;28;20113;-48
2021/10/24 00:38:57;;;;;;;3.83;3.42;;;;;;;27.06;22.92;95436.59;4962188;29;20390;-43
2021/10/24 00:41:24;;;;;;;3.88;3.35;;;;;;;26.84;23.57;95440.94;4962280;28;20050;-42
2021/10/24 00:43:51;;;;;;;3.90;3.50;;;;;;;26.97;23.10;95440.31;4961849;28;20046;-46
2021/10/24 00:46:18;;;;;;;4.40;3.97;;;;;;;26.25;24.14;95437.00;4947155;29;20058;-43
2021/10/24 00:48:45;;;;;;;4.65;3.90;;;;;;;26.77;23.39;95436.22;4944931;28;20059;-42
2021/10/24 00:51:13;;;;;;;4.03;3.58;;;;;;;26.58;23.70;95436.38;4961374;29;20047;-42
2021/10/24 00:53:41;;;;;;;4.22;3.45;;;;;;;26.57;23.54;95442.88;4961631;29;20058;-42
2021/10/24 00:56:08;;;;;;;4.80;3.72;;;;;;;26.69;23.44;95445.31;4954448;28;20059;-44
2021/10/24 00:58:35;;;;;;;4.07;3.67;;;;;;;26.65;23.67;95444.50;4960319;29;20572;-45
2021/10/24 01:01:03;;;;;;;4.03;3.65;;;;;;;26.48;24.01;95448.47;4961144;29;20058;-45
2021/10/24 01:03:30;;;;;;;4.20;3.83;;;;;;;26.58;23.57;95436.38;4962442;29;20059;-44
2021/10/24 01:06:00;;;;;;;4.35;3.95;;;;;;;26.98;23.10;95441.88;4961376;29;20044;-46
2021/10/24 01:08:27;;;;;;;3.85;3.55;;;;;;;26.58;23.24;95439.06;4960018;29;20055;-44
2021/10/24 01:10:55;;;;;;;3.80;3.42;;;;;;;26.72;23.34;95439.22;4944978;29;20069;-42
2021/10/24 01:13:23;;;;;;;4.13;3.70;;;;;;;26.65;23.39;95441.81;4961724;28;20054;-46
2021/10/24 01:15:50;;;;;;;4.85;4.35;;;;;;;26.80;23.29;95432.81;4944380;29;20059;-43
2021/10/24 01:18:17;;;;;;;4.38;3.97;;;;;;;26.68;23.18;95430.38;4946012;29;20047;-42
2021/10/24 01:20:47;;;;;;;4.47;4.07;;;;;;;26.40;23.80;95428.84;4959660;29;20574;-43
2021/10/24 01:23:14;;;;;;;3.90;3.60;;;;;;;26.60;23.50;95434.09;4960620;28;20051;-44
2021/10/24 01:25:41;;;;;;;4.53;3.80;;;;;;;26.55;23.39;95427.16;4975748;28;20082;-42
2021/10/24 01:28:09;;;;;;;5.43;4.30;;;;;;;26.70;23.28;95428.09;4960308;28;20470;-43
2021/10/24 01:30:36;;;;;;;4.35;3.95;;;;;;;26.56;23.38;95430.59;4961687;29;20063;-42
2021/10/24 01:33:03;;;;;;;4.22;3.83;;;;;;;26.44;23.50;95431.56;4961676;29;20073;-45
2021/10/24 01:35:30;;;;;;;4.45;4.05;;;;;;;26.74;23.09;95431.59;4944741;29;20094;-47
2021/10/24 01:37:58;;;;;;;4.32;3.92;;;;;;;26.62;23.14;95434.50;4961528;28;20054;-43
2021/10/24 01:40:25;;;;;;;4.50;4.10;;;;;;;26.36;23.41;95444.09;4961442;29;20058;-41
2021/10/24 01:42:57;;;;;;;4.75;4.10;;;;;;;26.39;23.25;95435.34;4944342;28;20058;-47
2021/10/24 01:45:28;;;;;;;4.65;4.25;;;;;;;26.41;23.38;95435.75;4960609;29;20046;-43
2021/10/24 01:48:05;;;;;;;4.50;4.10;;;;;;;26.40;23.25;95438.78;4959388;28;20058;-42
2021/10/24 01:50:33;;;;;;;5.13;4.68;;;;;;;26.33;23.45;95439.44;4942552;29;20051;-47
2021/10/24 01:53:00;;;;;;;5.07;4.60;;;;;;;26.32;23.57;95435.22;4958039;29;20062;-45
2021/10/24 01:55:28;;;;;;;5.03;4.53;;;;;;;26.71;22.75;95438.47;4968426;28;20059;-42
2021/10/24 01:57:55;;;;;;;4.80;4.40;;;;;;;26.30;23.26;95442.84;4941271;29;20063;-42
2021/10/24 02:00:24;;;;;;;5.20;4.70;;;;;;;26.38;23.02;95452.56;4957164;29;20055;-46
2021/10/24 02:02:54;;;;;;;5.43;4.82;;;;;;;26.36;23.14;95446.03;4956962;29;20470;-43
2021/10/24 02:05:37;;;;;;;5.22;4.72;;;;;;;26.30;23.45;95450.13;4941109;29;20062;-43
2021/10/24 02:08:07;;;;;;;5.97;5.13;;;;;;;26.14;23.62;95447.56;4956479;28;20062;-42
2021/10/24 02:10:35;;;;;;;5.30;4.80;;;;;;;26.16;23.51;95449.88;4957169;28;20058;-41
2021/10/24 02:13:05;;;;;;;6.55;4.80;;;;;;;26.33;23.31;95450.16;4941236;29;20477;-43
2021/10/24 02:15:35;;;;;;;6.40;4.50;;;;;;;26.17;23.28;95451.44;4964331;28;20792;-41
2021/10/24 02:18:05;;;;;;;5.95;5.45;;;;;;;26.18;23.25;95463.69;4954725;29;20063;-43
2021/10/24 02:20:37;;;;;;;6.20;5.30;;;;;;;26.08;23.51;95459.72;4938575;29;20775;-48
2021/10/24 02:23:05;;;;;;;5.20;4.72;;;;;;;26.29;23.15;95462.75;4956786;29;20058;-51
2021/10/24 02:25:33;;;;;;;5.57;5.07;;;;;;;26.31;23.15;95457.03;4957427;28;20058;-44
2021/10/24 02:28:02;;;;;;;6.03;5.43;;;;;;;26.34;23.20;95467.06;4956795;29;20070;-42
2021/10/24 02:30:30;;;;;;;6.93;5.43;;;;;;;26.51;22.96;95465.75;4948509;29;20055;-42
2021/10/24 02:33:03;;;;;;;5.72;5.22;;;;;;;26.48;22.84;95461.09;4937607;29;20374;-44
2021/10/24 02:35:53;;;;;;;5.53;5.03;;;;;;;26.61;22.52;95465.91;4949767;29;20047;-44
2021/10/24 02:38:20;;;;;;;6.60;5.75;;;;;;;26.32;23.14;95459.34;4956453;29;20051;-42
2021/10/24 02:40:47;;;;;;;5.80;5.30;;;;;;;26.11;23.56;95469.72;4953805;29;20047;-42
2021/10/24 02:43:16;;;;;;;5.95;5.35;;;;;;;26.23;23.27;95472.19;4945190;28;20063;-42
2021/10/24 02:45:44;;;;;;;6.28;5.72;;;;;;;26.04;23.55;95474.97;4955977;29;20047;-42
2021/10/24 02:48:11;;;;;;;5.65;5.00;;;;;;;26.51;22.88;95471.09;4956455;29;20051;-48
2021/10/24 02:50:39;;;;;;;6.32;5.70;;;;;;;26.39;23.16;95472.88;4956196;29;20051;-42
2021/10/24 02:53:07;;;;;;;6.47;5.68;;;;;;;26.34;22.93;95473.19;4956565;29;20059;-46
2021/10/24 02:55:34;;;;;;;6.18;5.57;;;;;;;26.33;22.89;95479.66;4939850;29;20052;-46
2021/10/24 02:58:02;;;;;;;5.95;5.40;;;;;;;26.23;23.10;95472.19;4956074;29;20571;-45
2021/10/24 03:00:30;;;;;;;5.85;5.25;;;;;;;26.00;23.54;95471.44;4955021;28;20051;-47
2021/10/24 03:02:57;;;;;;;5.97;5.47;;;;;;;26.25;23.09;95464.56;4956220;29;20775;-42
2021/10/24 03:05:24;;;;;;;6.13;5.53;;;;;;;26.43;22.76;95475.59;4955881;29;20050;-42
2021/10/24 03:07:52;;;;;;;6.35;5.63;;;;;;;25.85;23.38;95478.47;4955907;29;20043;-42
2021/10/24 03:10:19;;;;;;;6.20;5.70;;;;;;;25.99;23.08;95473.34;4939838;29;20059;-43
2021/10/24 03:12:46;;;;;;;5.70;5.13;;;;;;;26.12;22.96;95473.94;4955913;29;20051;-43
2021/10/24 03:15:16;;;;;;;6.13;5.57;;;;;;;26.08;23.00;95475.81;4956751;29;20054;-45
2021/10/24 03:17:43;;;;;;;6.05;5.43;;;;;;;26.29;22.63;95476.16;4955740;29;20042;-46
2021/10/24 03:20:10;;;;;;;6.40;5.80;;;;;;;26.39;22.61;95474.78;4939779;29;20047;-48
2021/10/24 03:22:38;;;;;;;6.15;5.55;;;;;;;26.34;22.52;95481.22;4939982;29;20047;-45
2021/10/24 03:25:05;;;;;;;6.28;5.68;;;;;;;26.23;22.77;95482.16;4938681;29;20051;-46
2021/10/24 03:27:33;;;;;;;6.78;5.63;;;;;;;26.31;22.61;95479.25;4955650;29;20051;-46
2021/10/24 03:30:00;;;;;;;6.45;5.82;;;;;;;25.95;22.85;95477.88;4959575;28;20050;-42
2021/10/24 03:32:27;;;;;;;5.95;5.45;;;;;;;26.57;22.28;95470.47;4971006;28;20464;-42
2021/10/24 03:34:54;;;;;;;5.93;5.38;;;;;;;26.39;22.56;95486.28;4971159;28;20390;-43
2021/10/24 03:37:22;;;;;;;6.22;5.63;;;;;;;26.60;22.20;95480.47;4931063;29;20051;-42
2021/10/24 03:39:51;;;;;;;6.10;5.50;;;;;;;26.32;22.50;95480.00;4929120;29;20050;-46
2021/10/24 03:42:18;;;;;;;7.90;5.93;;;;;;;26.57;22.42;95486.53;4955858;29;20054;-45
2021/10/24 03:44:46;;;;;;;6.60;6.00;;;;;;;26.25;22.55;95482.56;4962021;28;20051;-42
2021/10/24 03:47:13;;;;;;;6.32;5.40;;;;;;;26.55;21.98;95475.41;4939537;29;20047;-43
2021/10/24 03:49:42;;;;;;;6.63;6.03;;;;;;;26.46;22.37;95492.88;4955736;29;20070;-42
2021/10/24 03:52:09;;;;;;;6.40;5.80;;;;;;;26.33;22.31;95503.78;4955418;29;20043;-43
2021/10/24 03:54:36;;;;;;;6.72;5.97;;;;;;;26.29;22.32;95483.41;4938830;29;20057;-47
2021/10/24 03:57:03;;;;;;;6.35;5.70;;;;;;;26.07;22.74;95479.63;4956275;29;20051;-42
2021/10/24 03:59:31;;;;;;;6.20;5.60;;;;;;;26.24;22.31;95489.81;4955069;29;20046;-43
2021/10/24 04:01:58;;;;;;;7.88;6.30;;;;;;;26.14;22.76;95490.44;4955290;28;20086;-44
2021/10/24 04:04:27;;;;;;;7.32;6.05;;;;;;;26.28;22.60;95490.66;4955706;28;20043;-42
2021/10/24 04:06:54;;;;;;;7.03;6.32;;;;;;;26.33;22.42;95482.31;4954845;29;20062;-43
2021/10/24 04:09:22;;;;;;;6.63;5.90;;;;;;;26.28;22.16;95493.34;4954858;29;20047;-43
2021/10/24 04:11:50;;;;;;;6.50;5.60;;;;;;;26.43;22.09;95503.19;4938690;29;20054;-42
2021/10/24 04:14:18;;;;;;;7.03;6.30;;;;;;;25.89;22.62;95483.91;4938870;29;20466;-50
2021/10/24 04:16:45;;;;;;;6.45;5.85;;;;;;;25.99;22.56;95489.41;4938710;29;20053;-42
2021/10/24 04:19:32;;;;;;;7.55;6.63;;;;;;;26.10;22.45;95484.25;4955540;29;20058;-47
2021/10/24 04:22:02;;;;;;;6.22;5.60;;;;;;;26.16;22.37;95487.41;4954632;29;20058;-48
2021/10/24 04:24:30;;;;;;;6.30;5.70;;;;;;;26.28;22.29;95487.97;4938346;29;20058;-47
2021/10/24 04:26:57;;;;;;;6.93;6.22;;;;;;;26.27;22.17;95481.06;4955491;29;20062;-50
2021/10/24 04:29:24;;;;;;;5.95;5.45;;;;;;;26.24;22.00;95489.81;4955585;29;20050;-48
2021/10/24 04:31:51;;;;;;;6.88;6.18;;;;;;;26.16;22.30;95485.50;4956227;29;20062;-44
2021/10/24 04:34:18;;;;;;;7.65;5.65;;;;;;;26.27;22.29;95488.34;4955839;29;20062;-46
2021/10/24 04:36:45;;;;;;;6.38;5.78;;;;;;;26.48;22.00;95494.06;4954404;29;20044;-42
2021/10/24 04:39:12;;;;;;;6.80;6.20;;;;;;;26.18;22.18;95491.28;4954640;29;20058;-48
2021/10/24 04:41:40;;;;;;;6.15;5.65;;;;;;;26.27;21.79;95489.09;4954688;29;20043;-47
2021/10/24 04:44:07;;;;;;;6.53;5.55;;;;;;;26.27;21.93;95488.34;4955502;28;20055;-49
2021/10/24 04:46:35;;;;;;;6.30;5.70;;;;;;;26.21;22.01;95495.91;4938738;29;20370;-48
2021/10/24 04:49:02;;;;;;;6.55;5.95;;;;;;;26.13;21.81;95492.34;4954649;29;20054;-47
2021/10/24 04:51:33;;;;;;;6.22;5.63;;;;;;;26.13;21.99;95499.63;4954636;29;20051;-42
2021/10/24 04:54:00;;;;;;;7.18;6.03;;;;;;;26.15;21.83;95502.72;4952071;29;20052;-42
2021/10/24 04:56:28;;;;;;;7.53;5.93;;;;;;;26.08;21.87;95502.59;4938463;29;20078;-42
2021/10/24 04:58:55;;;;;;;6.50;5.90;;;;;;;25.95;22.01;95504.66;4954725;29;20054;-42
2021/10/24 05:01:22;;;;;;;6.30;5.70;;;;;;;26.00;21.86;95511.63;4939602;29;20054;-42
2021/10/24 05:03:50;;;;;;;6.43;5.80;;;;;;;25.85;21.83;95515.19;4954478;29;20051;-42
2021/10/24 05:06:18;;;;;;;6.90;5.82;;;;;;;25.87;22.07;95515.63;4954287;29;20055;-44
2021/10/24 05:08:45;;;;;;;6.38;5.78;;;;;;;25.93;22.09;95514.19;4955901;29;20055;-42
2021/10/24 05:11:13;;;;;;;6.07;5.47;;;;;;;25.85;21.86;95525.91;4938357;29;20054;-42
2021/10/24 05:13:41;;;;;;;6.57;5.75;;;;;;;25.99;21.92;95526.16;4948706;29;20339;-49
2021/10/24 05:16:08;;;;;;;7.43;5.50;;;;;;;26.02;21.91;95536.16;4938347;29;20339;-45
2021/10/24 05:18:35;;;;;;;6.88;5.70;;;;;;;26.27;21.51;95537.34;4954797;29;20051;-45
2021/10/24 05:21:02;;;;;;;5.82;5.32;;;;;;;26.42;21.43;95538.41;4954209;29;20483;-42
2021/10/24 05:23:30;;;;;;;6.05;5.45;;;;;;;26.21;21.26;95538.00;4955200;28;20366;-43
2021/10/24 05:26:00;;;;;;;6.13;5.53;;;;;;;26.45;21.12;95537.66;4941660;29;20458;-46
2021/10/24 05:28:27;;;;;;;7.78;6.15;;;;;;;26.26;21.31;95541.16;4957920;29;20050;-52
2021/10/24 05:30:55;;;;;;;6.00;5.40;;;;;;;26.32;21.50;95544.34;4947629;29;20497;-42
2021/10/24 05:33:22;;;;;;;6.15;5.55;;;;;;;26.20;21.60;95550.63;4958960;29;20398;-42
2021/10/24 05:36:10;;;;;;;6.07;5.47;;;;;;;26.59;20.96;95547.84;4958435;29;20445;-42
2021/10/24 05:38:37;;;;;;;6.75;6.05;;;;;;;26.46;20.72;95546.50;4958048;29;20477;-48
2021/10/24 05:41:12;;;;;;;6.90;6.03;;;;;;;26.56;20.60;95549.34;4942025;29;20056;-42
2021/10/24 05:43:39;;;;;;;6.45;5.85;;;;;;;26.54;20.95;95548.91;4963214;28;20035;-42
2021/10/24 05:46:07;;;;;;;6.57;5.88;;;;;;;26.39;21.05;95549.84;4957153;29;20058;-47
2021/10/24 05:48:34;;;;;;;7.28;5.88;;;;;;;26.56;20.62;95548.56;4941716;29;20051;-42
2021/10/24 05:51:11;;;;;;;6.10;5.50;;;;;;;26.47;20.84;95553.41;4941481;29;20364;-47
2021/10/24 05:53:40;;;;;;;6.25;5.65;;;;;;;26.58;20.76;95557.03;4957177;28;20373;-47
2021/10/24 05:56:14;;;;;;;6.90;5.68;;;;;;;26.82;20.53;95562.00;4940965;29;20070;-46
2021/10/24 05:58:44;;;;;;;6.53;5.93;;;;;;;26.67;20.58;95562.91;4957416;29;20043;-46
2021/10/24 06:01:26;;;;;;;6.43;5.82;;;;;;;27.25;20.32;95552.63;4941210;29;20054;-42
2021/10/24 06:04:12;;;;;;;6.25;5.65;;;;;;;27.13;20.31;95560.94;4958294;29;20059;-42
2021/10/24 06:07:05;;;;;;;5.57;5.07;;;;;;;27.09;20.34;95575.44;4949562;29;20043;-42
2021/10/24 06:09:49;;;;;;;6.15;5.55;;;;;;;27.64;19.94;95574.63;4972400;28;20055;-41
2021/10/24 06:12:59;;;;;;;5.93;5.32;;;;;;;27.54;19.64;95580.59;4922154;29;20070;-42
2021/10/24 06:15:09;;;;;;;6.50;5.82;;;;;;;27.39;20.00;95584.28;4957324;29;20062;-42
2021/10/24 06:17:37;;;;;;;5.80;5.30;;;;;;;27.32;19.81;95578.78;4957898;29;20354;-42
2021/10/24 06:20:06;;;;;;;6.88;5.25;;;;;;;27.93;19.16;95586.47;4956639;29;20059;-42
2021/10/24 06:22:34;;;;;;;5.60;5.00;;;;;;;28.00;19.15;95585.75;4956947;29;20053;-42
2021/10/24 06:25:05;;;;;;;6.32;5.68;;;;;;;28.80;18.56;95591.50;4966994;28;20462;-42
2021/10/24 06:27:37;;;;;;;5.93;5.22;;;;;;;28.60;18.66;95599.03;4938955;29;20433;-41
2021/10/24 06:30:06;;;;;;;5.53;5.00;;;;;;;27.86;19.37;95613.28;4935439;29;20114;-43
2021/10/24 06:32:53;;;;;;;6.40;5.20;;;;;;;28.90;18.16;95598.16;4957684;29;20062;-42
2021/10/24 06:35:56;;;;;;;6.57;5.38;;;;;;;29.31;18.00;95613.00;4930621;29;20044;-42
2021/10/24 06:38:23;;;;;;;5.82;5.00;;;;;;;29.20;18.20;95611.41;4950389;29;20059;-42
2021/10/24 06:40:55;;;;;;;5.93;5.05;;;;;;;29.92;17.44;95608.66;4952606;29;20790;-42
2021/10/24 06:43:24;;;;;;;6.10;5.22;;;;;;;29.02;18.41;95622.81;4948490;29;20098;-42
2021/10/24 06:46:11;;;;;;;5.57;4.90;;;;;;;30.12;17.21;95611.84;4936778;29;20050;-42
2021/10/24 06:48:51;;;;;;;5.38;4.88;;;;;;;29.67;17.51;95607.84;4956294;29;20051;-42
2021/10/24 06:51:24;;;;;;;7.70;5.15;;;;;;;29.06;18.08;95601.31;4956129;29;20545;-42
2021/10/24 06:53:57;;;;;;;4.72;4.32;;;;;;;30.16;17.20;95607.22;4955606;28;20051;-43
2021/10/24 06:56:42;;;;;;;5.18;4.70;;;;;;;30.44;16.90;95606.50;4956890;28;20136;-41
2021/10/24 06:59:28;;;;;;;19.80;18.40;;;;;;;31.73;15.45;95618.75;4949168;29;20055;-47
2021/10/24 07:02:14;;;;;;;6.05;4.97;;;;;;;30.78;16.47;95615.03;4956596;29;20458;-57
2021/10/24 07:04:59;;;;;;;38.70;32.47;;;;;;;31.67;15.26;95630.31;4937995;29;20064;-46
2021/10/24 07:07:30;;;;;;;41.20;32.03;;;;;;;32.74;14.64;95623.19;4939749;29;20046;-41
2021/10/24 07:10:10;;;;;;;5.78;4.55;;;;;;;31.73;15.55;95624.16;4940309;29;20279;-50
2021/10/24 07:12:37;;;;;;;4.88;4.40;;;;;;;32.04;15.05;95627.13;4955845;28;20054;-53
2021/10/24 07:15:06;;;;;;;31.38;28.40;;;;;;;32.42;14.57;95631.56;4955975;29;20062;-49
2021/10/24 07:17:36;;;;;;;27.23;25.08;;;;;;;33.09;14.43;95640.34;4940164;29;20047;-48
2021/10/24 07:20:06;;;;;;;24.08;22.33;;;;;;;33.11;14.29;95630.66;4951352;29;20043;-48
2021/10/24 07:22:44;;;;;;;12.00;10.90;;;;;;;32.02;14.87;95629.44;4956091;29;20058;-49
2021/10/24 07:25:43;;;;;;;19.60;17.95;;;;;;;32.04;15.25;95637.94;4956639;29;20047;-49
2021/10/24 07:28:10;;;;;;;7.03;6.35;;;;;;;31.85;15.08;95634.53;4940142;29;20051;-54
2021/10/24 07:30:38;;;;;;;8.68;7.78;;;;;;;32.02;14.57;95645.69;4940080;29;20062;-46
2021/10/24 07:33:05;;;;;;;5.88;5.28;;;;;;;31.49;15.18;95630.38;4955926;29;20053;-42
2021/10/24 07:35:51;;;;;;;5.72;5.03;;;;;;;31.49;15.16;95624.97;4956582;29;20062;-42
2021/10/24 07:38:18;;;;;;;5.05;4.47;;;;;;;31.03;15.41;95625.06;4940061;29;20465;-42
2021/10/24 07:40:49;;;;;;;5.82;4.90;;;;;;;31.77;14.58;95654.66;4956445;29;20047;-42
2021/10/24 07:43:21;;;;;;;5.10;4.60;;;;;;;33.63;13.49;95641.38;4956305;28;20361;-40
2021/10/24 07:45:52;;;;;;;4.97;4.45;;;;;;;33.29;13.26;95638.59;4938659;29;20051;-44
2021/10/24 07:48:23;;;;;;;6.28;4.45;;;;;;;32.95;13.78;95633.13;4955263;29;20086;-41
2021/10/24 07:50:51;;;;;;;6.47;4.80;;;;;;;31.88;14.75;95641.84;4955287;29;20047;-42
2021/10/24 07:53:27;;;;;;;5.72;4.40;;;;;;;32.31;14.43;95641.69;4955260;28;20051;-41
2021/10/24 07:55:56;;;;;;;7.35;4.80;;;;;;;31.97;14.68;95625.19;4938954;29;20062;-42
2021/10/24 07:58:42;;;;;;;5.22;4.72;;;;;;;32.15;14.87;95633.22;4956399;29;20050;-42
2021/10/24 08:01:09;;;;;;;4.88;4.40;;;;;;;31.79;14.91;95633.41;4954784;29;20059;-41
2021/10/24 08:03:36;;;;;;;4.78;4.38;;;;;;;32.00;14.71;95632.53;4938582;29;20047;-42
2021/10/24 08:06:05;;;;;;;6.72;5.43;;;;;;;32.13;14.77;95619.34;4954758;29;20050;-42
2021/10/24 08:08:36;;;;;;;6.00;4.50;;;;;;;32.09;14.48;95634.81;4931982;29;20059;-41
2021/10/24 08:11:04;;;;;;;5.47;4.78;;;;;;;32.19;14.39;95650.22;4929464;29;20343;-41
2021/10/24 08:13:32;;;;;;;4.95;4.45;;;;;;;32.28;14.82;95661.41;4959153;28;20047;-56
2021/10/24 08:15:59;;;;;;;5.82;4.63;;;;;;;31.95;14.68;95651.09;4954371;29;20063;-51
2021/10/24 08:18:26;;;;;;;5.32;4.57;;;;;;;32.08;14.25;95638.69;4956577;28;20039;-48
2021/10/24 08:21:20;;;;;;;6.05;4.60;;;;;;;31.78;14.54;95636.50;4954651;29;20470;-48
2021/10/24 08:23:49;;;;;;;4.95;4.45;;;;;;;31.76;14.27;95650.41;4955096;28;20066;-47
2021/10/24 08:26:18;;;;;;;4.90;4.40;;;;;;;31.92;14.24;95649.19;4954493;29;20062;-43
2021/10/24 08:28:45;;;;;;;5.70;4.10;;;;;;;32.20;14.08;95651.75;4954523;29;20050;-41
2021/10/24 08:31:32;;;;;;;5.22;3.95;;;;;;;32.15;13.98;95638.63;4955601;29;20058;-42
2021/10/24 08:34:00;;;;;;;6.95;3.97;;;;;;;32.56;14.17;95640.75;4954883;29;20055;-42
2021/10/24 08:36:28;;;;;;;4.50;3.58;;;;;;;32.76;13.47;95631.69;4955564;29;20642;-43
2021/10/24 08:38:57;;;;;;;4.88;3.97;;;;;;;32.88;13.74;95644.00;4955733;29;20382;-42
2021/10/24 08:41:29;;;;;;;4.00;3.42;;;;;;;33.02;13.68;95635.75;4949434;29;20351;-42
2021/10/24 08:44:01;;;;;;;9.73;4.03;;;;;;;30.48;16.12;95634.28;4952530;28;20375;-43
2021/10/24 08:46:28;;;;;;;5.22;3.83;;;;;;;32.26;14.24;95642.06;4943089;29;20055;-42
2021/10/24 08:48:57;;;;;;;4.60;3.90;;;;;;;32.84;13.56;95640.56;4955591;29;20047;-41
2021/10/24 08:51:27;;;;;;;4.78;4.25;;;;;;;33.17;13.62;95641.06;4950101;29;20047;-43
2021/10/24 08:53:55;;;;;;;4.88;3.58;;;;;;;32.52;14.22;95640.75;4941765;28;20047;-48
2021/10/24 08:56:31;;;;;;;4.80;4.00;;;;;;;32.44;14.28;95648.16;4946732;29;20059;-44
2021/10/24 08:58:59;;;;;;;59.05;55.05;;;;;;;32.95;14.19;95632.34;4958859;28;20039;-43
2021/10/24 09:01:26;;;;;;;38.40;34.22;;;;;;;33.99;12.68;95640.97;4949567;29;20362;-41
2021/10/24 09:04:08;;;;;;;9.02;6.88;;;;;;;32.74;13.23;95652.19;4939462;29;20055;-47
2021/10/24 09:06:53;;;;;;;8.55;6.47;;;;;;;33.68;13.04;95654.50;4947193;29;20058;-45
2021/10/24 09:09:26;;;;;;;7.28;5.55;;;;;;;34.23;12.93;95655.41;4955089;29;20083;-50
2021/10/24 09:11:55;;;;;;;5.88;4.38;;;;;;;34.16;12.58;95656.25;4953150;29;20454;-55
2021/10/24 09:14:43;;;;;;;5.25;4.00;;;;;;;34.03;12.55;95661.44;4958070;28;20058;-44
2021/10/24 09:17:17;;;;;;;5.07;3.97;;;;;;;33.94;12.48;95655.00;4958966;28;20063;-46
2021/10/24 09:19:49;;;;;;;4.97;3.58;;;;;;;33.81;12.60;95651.22;4959262;29;20047;-47
2021/10/24 09:22:26;;;;;;;4.40;3.58;;;;;;;33.94;12.66;95660.41;4959054;29;20043;-51
2021/10/24 09:25:14;;;;;;;5.45;3.90;;;;;;;34.30;12.34;95658.00;4958304;28;20051;-47
2021/10/24 09:27:55;;;;;;;5.10;3.65;;;;;;;34.24;12.15;95657.69;4958693;29;20062;-48
2021/10/24 09:30:25;;;;;;;6.15;3.70;;;;;;;34.27;12.56;95650.69;4957344;29;20051;-54
2021/10/24 09:33:10;;;;;;;57.85;54.05;;;;;;;34.47;12.65;95648.13;4939757;29;20058;-48
2021/10/24 09:35:46;;;;;;;17.73;16.02;;;;;;;34.41;12.11;95650.53;4951007;29;20462;-47
2021/10/24 09:38:24;;;;;;;7.95;6.30;;;;;;;33.24;13.16;95654.53;4951365;29;20257;-52
2021/10/24 09:41:07;;;;;;;5.38;4.15;;;;;;;33.34;12.33;95653.69;4956239;29;20047;-50
2021/10/24 09:43:35;;;;;;;6.65;4.30;;;;;;;32.48;13.14;95648.91;4940083;29;20071;-46
2021/10/24 09:46:02;;;;;;;7.75;4.95;;;;;;;32.64;12.73;95647.66;4958091;29;20047;-51
2021/10/24 09:48:32;;;;;;;5.20;4.00;;;;;;;32.73;12.30;95656.06;4940730;29;20063;-45
2021/10/24 09:51:03;;;;;;;5.55;3.70;;;;;;;32.42;13.03;95647.78;4939695;29;20059;-49
2021/10/24 09:53:38;;;;;;;4.43;3.90;;;;;;;33.52;13.21;95648.06;4940301;28;20066;-46
2021/10/24 09:56:10;;;;;;;7.25;4.15;;;;;;;33.91;12.54;95640.31;4957899;29;20094;-43
2021/10/24 09:58:45;;;;;;;5.55;3.53;;;;;;;33.63;12.72;95635.97;4958436;29;20043;-46
2021/10/24 10:01:18;;;;;;;4.88;3.35;;;;;;;33.08;12.67;95636.88;4957158;29;20050;-44
2021/10/24 10:03:48;;;;;;;4.03;3.33;;;;;;;33.34;12.40;95637.44;4958443;29;20050;-53
2021/10/24 10:06:19;;;;;;;4.68;3.50;;;;;;;33.54;12.71;95624.81;4957649;29;20466;-48
2021/10/24 10:08:46;;;;;;;6.47;3.58;;;;;;;33.83;12.39;95628.03;4957913;28;20047;-46
2021/10/24 10:11:16;;;;;;;4.88;3.47;;;;;;;33.72;12.00;95624.63;4945697;29;20047;-44
2021/10/24 10:13:45;;;;;;;3.40;3.07;;;;;;;32.09;14.22;95629.41;4952645;28;20466;-52
2021/10/24 10:16:14;;;;;;;6.70;4.50;;;;;;;23.18;23.78;95637.78;4942654;29;20059;-62
2021/10/24 10:19:11;;;;;;;4.35;3.63;;;;;;;35.34;11.64;95625.38;4948473;29;20375;-54
2021/10/24 10:21:45;;;;;;;5.28;3.30;;;;;;;34.92;11.81;95635.03;4956108;29;20051;-76
2021/10/24 10:24:34;;;;;;;3.70;3.03;;;;;;;34.75;12.09;95628.69;4957709;28;20560;-53
2021/10/24 10:27:28;;;;;;;7.30;3.10;;;;;;;34.88;11.69;95635.09;4946741;29;20059;-57
2021/10/24 10:29:57;;;;;;;9.50;4.15;;;;;;;35.26;11.65;95634.84;4957734;29;20059;-45
2021/10/24 10:32:41;;;;;;;11.15;8.40;;;;;;;34.75;11.67;95636.81;4957991;29;20050;-52
2021/10/24 10:35:12;;;;;;;10.00;6.22;;;;;;;34.53;11.91;95630.94;4957416;29;20477;-49
2021/10/24 10:37:52;;;;;;;;;;;;;;;34.22;11.71;95632.91;4950668;29;20047;-49
2021/10/24 10:40:33;;;;;;;8.27;4.35;;;;;;;34.46;11.75;95624.88;4937773;29;19925;-48
2021/10/24 10:43:11;;;;;;;5.72;3.78;;;;;;;34.59;11.23;95620.38;4941849;28;20081;-48
2021/10/24 10:45:48;;;;;;;12.45;3.75;;;;;;;34.61;11.71;95615.31;4957423;29;20093;-47
2021/10/24 10:48:34;;;;;;;3.70;2.95;;;;;;;34.87;11.44;95620.00;4957247;29;20336;-50
2021/10/24 10:51:06;;;;;;;5.53;3.00;;;;;;;34.64;11.85;95630.81;4957050;29;20059;-47
2021/10/24 10:53:34;;;;;;;3.65;2.97;;;;;;;34.68;11.91;95630.75;4956076;29;20051;-50
2021/10/24 10:56:05;;;;;;;4.65;3.33;;;;;;;34.75;12.07;95620.53;4957166;29;20067;-52
2021/10/24 10:58:40;;;;;;;4.88;3.20;;;;;;;34.56;11.87;95632.06;4957442;29;20051;-46
2021/10/24 11:01:27;;;;;;;18.52;16.55;;;;;;;34.39;11.50;95620.31;4957339;29;20050;-48
2021/10/24 11:04:16;;;;;;;10.73;9.68;;;;;;;34.47;11.80;95616.31;4956871;29;20051;-48
2021/10/24 11:06:53;;;;;;;6.68;4.63;;;;;;;34.36;12.02;95618.44;4956527;29;20043;-48
2021/10/24 11:09:39;;;;;;;5.80;4.40;;;;;;;34.25;11.74;95599.53;4970315;23;20054;-47
2021/10/24 11:12:30;;;;;;;7.53;3.58;;;;;;;34.06;11.75;95602.91;5034292;28;20403;-47
2021/10/24 11:15:33;;;;;;;4.55;3.10;;;;;;;34.04;12.03;95599.81;5035605;28;20053;-48
2021/10/24 11:18:02;;;;;;;4.25;2.92;;;;;;;34.02;11.85;95596.75;5032937;28;20588;-47
2021/10/24 11:20:40;;;;;;;6.30;3.08;;;;;;;34.15;11.84;95597.00;5034562;28;20053;-48
2021/10/24 11:23:11;;;;;;;5.95;3.20;;;;;;;34.18;11.96;95605.06;5035130;28;20049;-47
2021/10/24 11:25:39;;;;;;;4.75;2.78;;;;;;;34.21;12.11;95615.09;5035194;28;20076;-49
2021/10/24 11:28:28;;;;;;;5.13;3.00;;;;;;;34.37;11.75;95608.34;5035031;28;20049;-47
2021/10/24 11:31:00;;;;;;;7.10;2.80;;;;;;;34.21;11.98;95608.91;5034163;28;20056;-48
2021/10/24 11:33:43;;;;;;;6.38;2.72;;;;;;;34.27;12.15;95608.03;5034801;28;20112;-48
2021/10/24 11:36:10;;;;;;;5.97;2.78;;;;;;;33.87;11.88;95600.84;5034794;28;20045;-48
2021/10/24 11:38:37;;;;;;;3.28;2.53;;;;;;;34.16;11.46;95590.38;5034684;28;20042;-49
2021/10/24 11:41:18;;;;;;;3.17;2.70;;;;;;;34.12;11.36;95590.44;5032849;28;20049;-48
2021/10/24 11:43:46;;;;;;;3.83;2.40;;;;;;;34.00;11.15;95582.84;5034062;28;20045;-47
2021/10/24 11:46:13;;;;;;;3.85;2.30;;;;;;;34.06;11.38;95583.91;5017143;28;20052;-47
2021/10/24 11:48:41;;;;;;;4.03;2.65;;;;;;;33.87;11.02;95585.34;5034534;28;20164;-47
2021/10/24 11:51:13;;;;;;;3.13;2.47;;;;;;;33.70;11.63;95587.06;5040095;28;20072;-48
2021/10/24 11:53:42;;;;;;;3.72;3.00;;;;;;;33.57;11.94;95594.22;5034701;28;20355;-44